createdAt,value
2022-08-08T00:01:08.890Z,13.28
2022-08-08T00:03:55.982Z,13.30
2022-08-08T00:06:36.414Z,13.32
2022-08-08T00:09:12.252Z,13.35
2022-08-08T00:12:07.428Z,13.12
2022-08-08T00:14:59.569Z,13.13
2022-08-08T00:17:58.768Z,13.18
2022-08-08T00:20:36.290Z,13.06
2022-08-08T00:23:09.501Z,13.01
2022-08-08T00:25:46.786Z,13.02
2022-08-08T00:28:35.581Z,13.00
2022-08-08T00:32:29.187Z,13.03
2022-08-08T00:34:49.185Z,12.67
2022-08-08T00:37:48.166Z,12.80
2022-08-08T00:41:16.937Z,12.93
2022-08-08T00:44:01.035Z,12.86
2022-08-08T00:47:00.033Z,12.82
2022-08-08T00:49:59.041Z,12.86
2022-08-08T00:52:51.737Z,12.88
2022-08-08T00:55:56.553Z,13.00
2022-08-08T00:58:55.260Z,12.98
2022-08-08T01:01:38.077Z,13.09
2022-08-08T01:04:52.405Z,13.08
2022-08-08T01:08:06.265Z,13.23
2022-08-08T01:11:08.194Z,13.33
2022-08-08T01:14:53.458Z,13.30
2022-08-08T01:17:51.405Z,13.26
2022-08-08T01:20:39.816Z,13.46
2022-08-08T01:24:05.891Z,13.61
2022-08-08T01:26:52.861Z,13.63
2022-08-08T01:29:58.624Z,13.76
2022-08-08T01:33:00.577Z,13.81
2022-08-08T01:35:49.590Z,13.80
2022-08-08T01:39:23.929Z,13.66
2022-08-08T01:42:02.740Z,13.87
2022-08-08T01:44:43.569Z,13.83
2022-08-08T01:48:15.586Z,13.77
2022-08-08T01:50:37.312Z,13.75
2022-08-08T01:54:19.133Z,13.82
2022-08-08T01:56:28.601Z,13.78
2022-08-08T01:59:17.505Z,13.76
2022-08-08T02:02:05.444Z,13.91
2022-08-08T02:04:43.679Z,13.84
2022-08-08T02:07:17.795Z,13.78
2022-08-08T02:10:04.035Z,13.74
2022-08-08T02:12:52.671Z,13.83
2022-08-08T02:15:34.944Z,13.85
2022-08-08T02:18:14.602Z,13.78
2022-08-08T02:21:13.020Z,13.64
2022-08-08T02:23:47.346Z,13.69
2022-08-08T02:26:23.263Z,13.77
2022-08-08T02:29:08.472Z,13.64
2022-08-08T02:32:05.854Z,13.64
2022-08-08T02:35:11.277Z,13.72
2022-08-08T02:37:58.147Z,13.74
2022-08-08T02:40:39.377Z,13.61
2022-08-08T02:44:36.997Z,13.66
2022-08-08T02:46:50.500Z,13.68
2022-08-08T02:49:52.258Z,13.65
2022-08-08T02:52:38.725Z,13.54
2022-08-08T02:55:36.421Z,13.47
2022-08-08T02:58:47.589Z,13.33
2022-08-08T03:01:50.029Z,13.30
2022-08-08T03:05:10.956Z,13.40
2022-08-08T03:08:14.990Z,13.26
2022-08-08T03:12:02.136Z,13.16
2022-08-08T03:16:02.364Z,13.14
2022-08-08T03:17:42.925Z,12.99
2022-08-08T03:20:28.177Z,12.98
2022-08-08T03:23:00.356Z,12.90
2022-08-08T03:25:35.532Z,12.90
2022-08-08T03:28:08.629Z,12.99
2022-08-08T03:30:36.966Z,13.00
2022-08-08T03:33:55.886Z,13.07
2022-08-08T03:36:10.523Z,13.02
2022-08-08T03:38:56.431Z,12.74
2022-08-08T03:42:12.799Z,12.93
2022-08-08T03:44:25.708Z,13.09
2022-08-08T03:46:54.158Z,12.98
2022-08-08T03:49:59.091Z,12.89
2022-08-08T03:52:14.078Z,12.85
2022-08-08T03:55:01.824Z,12.74
2022-08-08T03:58:30.244Z,12.93
2022-08-08T04:00:26.171Z,13.13
2022-08-08T04:03:11.147Z,13.15
2022-08-08T04:05:48.060Z,13.15
2022-08-08T04:08:32.486Z,13.13
2022-08-08T04:11:11.222Z,13.08
2022-08-08T04:14:04.569Z,12.96
2022-08-08T04:16:38.466Z,12.86
2022-08-08T04:19:24.004Z,13.01
2022-08-08T04:21:54.382Z,12.97
2022-08-08T04:24:28.841Z,12.92
2022-08-08T04:27:02.684Z,12.92
2022-08-08T04:29:36.839Z,12.88
2022-08-08T04:32:07.189Z,12.83
2022-08-08T04:34:42.884Z,12.83
2022-08-08T04:37:31.905Z,12.94
2022-08-08T04:40:05.664Z,12.93
2022-08-08T04:42:37.440Z,12.94
2022-08-08T04:45:15.147Z,12.99
2022-08-08T04:47:46.361Z,12.93
2022-08-08T04:50:24.727Z,13.04
2022-08-08T04:53:05.051Z,13.23
2022-08-08T04:55:55.189Z,13.51
2022-08-08T04:58:26.557Z,13.83
2022-08-08T05:00:54.620Z,14.18
2022-08-08T05:04:10.457Z,14.45
2022-08-08T05:06:13.787Z,14.74
2022-08-08T05:08:51.938Z,14.77
2022-08-08T05:11:23.157Z,15.21
2022-08-08T05:13:57.900Z,15.30
2022-08-08T05:16:55.001Z,15.34
2022-08-08T05:20:11.162Z,15.54
2022-08-08T05:22:07.912Z,15.80
2022-08-08T05:24:37.384Z,16.07
2022-08-08T05:27:06.019Z,16.32
2022-08-08T05:29:36.714Z,16.47
2022-08-08T05:32:07.446Z,16.64
2022-08-08T05:34:41.854Z,16.88
2022-08-08T05:37:18.827Z,17.15
2022-08-08T05:39:51.359Z,17.31
2022-08-08T05:42:27.112Z,17.33
2022-08-08T05:45:10.178Z,17.54
2022-08-08T05:47:59.894Z,17.58
2022-08-08T05:50:31.269Z,17.87
2022-08-08T05:53:23.022Z,18.10
2022-08-08T05:56:07.809Z,18.31
2022-08-08T05:58:57.217Z,18.56
2022-08-08T06:01:55.786Z,18.66
2022-08-08T06:04:23.240Z,18.91
2022-08-08T06:06:56.569Z,19.17
2022-08-08T06:10:00.004Z,19.23
2022-08-08T06:12:30.558Z,19.38
2022-08-08T06:15:02.805Z,19.19
2022-08-08T06:17:51.067Z,19.15
2022-08-08T06:20:21.361Z,19.22
2022-08-08T06:22:51.350Z,19.27
2022-08-08T06:25:19.340Z,19.41
2022-08-08T06:28:14.472Z,19.54
2022-08-08T06:30:45.847Z,19.57
2022-08-08T06:33:16.442Z,19.50
2022-08-08T06:36:09.767Z,19.43
2022-08-08T06:38:39.461Z,19.43
2022-08-08T06:41:13.499Z,19.45
2022-08-08T06:43:47.686Z,19.47
2022-08-08T06:46:25.101Z,19.64
2022-08-08T06:49:00.974Z,19.72
2022-08-08T06:51:31.157Z,19.51
2022-08-08T06:54:15.945Z,19.39
2022-08-08T06:56:47.199Z,19.34
2022-08-08T06:59:19.487Z,19.45
2022-08-08T07:02:27.018Z,19.44
2022-08-08T07:04:53.949Z,19.57
2022-08-08T07:07:35.259Z,19.57
2022-08-08T07:10:08.204Z,19.54
2022-08-08T07:12:41.366Z,19.54
2022-08-08T07:15:32.034Z,19.67
2022-08-08T07:18:35.879Z,19.77
2022-08-08T07:21:02.169Z,19.96
2022-08-08T07:24:01.026Z,19.83
2022-08-08T07:26:35.276Z,19.86
2022-08-08T07:29:08.347Z,19.88
2022-08-08T07:31:41.783Z,20.02
2022-08-08T07:34:26.939Z,20.16
2022-08-08T07:37:12.172Z,20.25
2022-08-08T07:39:55.818Z,20.39
2022-08-08T07:42:32.907Z,20.46
2022-08-08T07:45:01.940Z,20.51
2022-08-08T07:47:39.322Z,20.69
2022-08-08T07:50:09.041Z,20.80
2022-08-08T07:52:43.639Z,20.86
2022-08-08T07:55:19.217Z,21.21
2022-08-08T07:58:03.092Z,21.33
2022-08-08T08:00:38.822Z,21.24
2022-08-08T08:03:16.841Z,21.07
2022-08-08T08:05:53.347Z,20.92
2022-08-08T08:08:29.302Z,20.93
2022-08-08T08:10:58.676Z,20.85
2022-08-08T08:13:42.835Z,21.22
2022-08-08T08:16:31.984Z,21.70
2022-08-08T08:19:02.845Z,22.08
2022-08-08T08:21:57.770Z,22.26
2022-08-08T08:24:30.961Z,21.98
2022-08-08T08:27:03.500Z,22.23
2022-08-08T08:29:32.105Z,22.61
2022-08-08T08:32:03.574Z,22.81
2022-08-08T08:34:34.105Z,22.95
2022-08-08T08:37:08.459Z,22.93
2022-08-08T08:40:01.552Z,23.14
2022-08-08T08:42:35.316Z,22.88
2022-08-08T08:45:10.267Z,22.38
2022-08-08T08:47:55.025Z,21.88
2022-08-08T08:50:32.620Z,21.74
2022-08-08T08:53:27.953Z,21.84
2022-08-08T08:56:02.031Z,22.63
2022-08-08T08:58:35.595Z,23.54
2022-08-08T09:01:10.455Z,24.46
2022-08-08T09:03:47.253Z,25.63
2022-08-08T09:06:28.839Z,25.58
2022-08-08T09:09:07.292Z,25.77
2022-08-08T09:12:02.271Z,26.28
2022-08-08T09:14:42.695Z,26.17
2022-08-08T09:17:41.014Z,26.11
2022-08-08T09:21:57.054Z,25.30
2022-08-08T09:23:00.512Z,24.47
2022-08-08T09:25:36.085Z,24.02
2022-08-08T09:28:35.413Z,24.24
2022-08-08T09:31:13.007Z,25.29
2022-08-08T09:34:15.813Z,26.67
2022-08-08T09:36:35.847Z,27.72
2022-08-08T09:39:10.121Z,28.95
2022-08-08T09:42:14.628Z,29.60
2022-08-08T09:45:04.040Z,30.54
2022-08-08T09:48:09.656Z,30.99
2022-08-08T09:50:28.234Z,31.36
2022-08-08T09:53:23.747Z,29.77
2022-08-08T09:56:05.351Z,29.51
2022-08-08T09:58:44.688Z,29.86
2022-08-08T10:02:00.148Z,30.57
2022-08-08T10:04:38.623Z,30.64
2022-08-08T10:07:10.627Z,31.62
2022-08-08T10:09:58.606Z,32.60
2022-08-08T10:12:37.491Z,33.21
2022-08-08T10:15:17.979Z,32.11
2022-08-08T10:18:05.635Z,30.67
2022-08-08T10:20:51.305Z,29.61
2022-08-08T10:24:29.505Z,30.90
2022-08-08T10:27:01.842Z,31.12
2022-08-08T10:29:58.600Z,31.70
2022-08-08T10:32:37.731Z,32.48
2022-08-08T10:36:07.419Z,32.31
2022-08-08T10:38:03.148Z,30.62
2022-08-08T10:40:34.956Z,28.31
2022-08-08T10:43:05.506Z,27.20
2022-08-08T10:45:55.769Z,27.38
2022-08-08T10:48:36.145Z,28.66
2022-08-08T10:51:15.145Z,29.67
2022-08-08T10:53:57.541Z,30.52
2022-08-08T10:56:32.113Z,31.95
2022-08-08T10:59:03.227Z,33.06
2022-08-08T11:01:33.468Z,32.71
2022-08-08T11:04:04.816Z,32.34
2022-08-08T11:09:32.023Z,31.86
2022-08-08T11:13:25.512Z,29.76
2022-08-08T11:16:32.800Z,30.71
2022-08-08T11:19:02.894Z,29.65
2022-08-08T11:21:35.689Z,28.95
2022-08-08T11:24:08.975Z,27.34
2022-08-08T11:26:56.339Z,26.93
2022-08-08T11:29:29.403Z,26.30
2022-08-08T11:32:15.537Z,26.40
2022-08-08T11:35:08.292Z,27.48
2022-08-08T11:38:39.427Z,27.60
2022-08-08T11:40:31.421Z,27.32
2022-08-08T11:43:01.859Z,26.40
2022-08-08T11:45:36.742Z,25.43
2022-08-08T11:48:20.645Z,24.73
2022-08-08T11:50:52.570Z,24.08
2022-08-08T11:53:24.359Z,23.51
2022-08-08T11:55:55.368Z,23.05
2022-08-08T11:58:34.075Z,22.79
2022-08-08T12:01:12.405Z,22.63
2022-08-08T12:03:50.304Z,22.38
2022-08-08T12:06:19.632Z,22.09
2022-08-08T12:08:52.295Z,22.16
2022-08-08T12:11:26.864Z,22.17
2022-08-08T12:14:05.484Z,22.08
2022-08-08T12:16:46.459Z,21.94
2022-08-08T12:19:15.525Z,21.97
2022-08-08T12:22:00.552Z,21.99
2022-08-08T12:24:31.927Z,22.07
2022-08-08T12:27:04.310Z,22.13
2022-08-08T12:29:42.007Z,22.07
2022-08-08T12:32:19.603Z,22.13
2022-08-08T12:34:55.332Z,22.12
2022-08-08T12:37:40.872Z,22.08
2022-08-08T12:40:22.534Z,22.01
2022-08-08T12:42:54.055Z,22.11
2022-08-08T12:45:59.326Z,22.02
2022-08-08T12:48:38.260Z,21.88
2022-08-08T12:51:11.218Z,21.97
2022-08-08T12:53:59.247Z,22.09
2022-08-08T12:56:34.974Z,22.05
2022-08-08T12:59:15.662Z,22.24
2022-08-08T13:01:50.927Z,22.54
2022-08-08T13:04:24.237Z,22.50
2022-08-08T13:06:55.561Z,22.68
2022-08-08T13:09:32.994Z,22.60
2022-08-08T13:12:28.024Z,22.84
2022-08-08T13:14:53.376Z,23.14
2022-08-08T13:18:07.754Z,23.17
2022-08-08T13:20:18.118Z,23.17
2022-08-08T13:22:51.544Z,23.56
2022-08-08T13:25:28.483Z,23.66
2022-08-08T13:28:00.638Z,24.37
2022-08-08T13:30:30.581Z,24.74
2022-08-08T13:33:02.320Z,25.09
2022-08-08T13:35:43.907Z,25.08
2022-08-08T13:38:19.670Z,25.51
2022-08-08T13:40:57.435Z,26.28
2022-08-08T13:43:26.104Z,26.29
2022-08-08T13:46:08.559Z,27.33
2022-08-08T13:49:11.310Z,27.72
2022-08-08T13:51:41.647Z,28.42
2022-08-08T13:54:22.817Z,29.36
2022-08-08T13:57:11.290Z,30.24
2022-08-08T13:59:47.962Z,30.10
2022-08-08T14:02:22.668Z,30.52
2022-08-08T14:05:09.182Z,31.52
2022-08-08T14:07:52.618Z,32.91
2022-08-08T14:10:33.517Z,33.49
2022-08-08T14:13:31.202Z,34.61
2022-08-08T14:16:04.514Z,34.95
2022-08-08T14:18:53.361Z,35.09
2022-08-08T14:21:23.458Z,35.36
2022-08-08T14:24:07.942Z,35.79
2022-08-08T14:26:45.898Z,35.93
2022-08-08T14:29:29.877Z,35.87
2022-08-08T14:32:10.500Z,36.86
2022-08-08T14:34:45.547Z,36.52
2022-08-08T14:37:18.262Z,36.68
2022-08-08T14:39:53.633Z,37.51
2022-08-08T14:42:56.901Z,37.58
2022-08-08T14:46:01.367Z,36.93
2022-08-08T14:48:34.777Z,37.35
2022-08-08T14:51:18.011Z,37.92
2022-08-08T14:53:55.959Z,37.75
2022-08-08T14:56:30.554Z,37.48
2022-08-08T14:59:00.686Z,37.58
2022-08-08T15:01:37.659Z,37.32
2022-08-08T15:04:13.312Z,37.82
2022-08-08T15:06:45.359Z,38.20
2022-08-08T15:09:19.749Z,37.80
2022-08-08T15:12:00.655Z,37.80
2022-08-08T15:14:32.656Z,37.87
2022-08-08T15:17:04.809Z,37.77
2022-08-08T15:19:46.154Z,37.48
2022-08-08T15:22:23.282Z,37.48
2022-08-08T15:24:55.589Z,38.00
2022-08-08T15:28:04.345Z,38.08
2022-08-08T15:30:21.008Z,37.42
2022-08-08T15:32:49.349Z,37.30
2022-08-08T15:35:18.086Z,36.06
2022-08-08T15:37:54.506Z,35.94
2022-08-08T15:40:28.175Z,36.36
2022-08-08T15:42:57.486Z,35.95
2022-08-08T15:45:33.041Z,35.24
2022-08-08T15:48:16.028Z,34.72
2022-08-08T15:51:06.322Z,35.11
2022-08-08T15:53:48.924Z,35.32
2022-08-08T15:56:21.108Z,35.12
2022-08-08T15:58:50.329Z,35.02
2022-08-08T16:01:20.926Z,35.08
2022-08-08T16:03:56.944Z,34.58
2022-08-08T16:06:28.292Z,34.90
2022-08-08T16:13:03.134Z,35.19
2022-08-08T16:18:06.642Z,33.02
2022-08-08T16:20:38.454Z,32.37
2022-08-08T16:23:11.411Z,32.11
2022-08-08T16:25:46.348Z,30.91
2022-08-08T16:28:35.641Z,30.07
2022-08-08T16:31:07.746Z,28.66
2022-08-08T16:33:40.712Z,27.50
2022-08-08T16:36:15.609Z,26.80
2022-08-08T16:38:54.043Z,26.34
2022-08-08T16:41:26.202Z,25.86
2022-08-08T16:43:57.726Z,25.53
2022-08-08T16:46:37.434Z,25.39
2022-08-08T16:49:14.670Z,24.87
2022-08-08T16:55:01.633Z,24.48
2022-08-08T16:55:05.577Z,24.74
2022-08-08T16:58:14.354Z,24.34
2022-08-08T17:00:26.629Z,24.40
2022-08-08T17:02:55.373Z,24.27
2022-08-08T17:05:23.520Z,24.39
2022-08-08T17:08:10.580Z,24.24
2022-08-08T17:10:39.136Z,23.72
2022-08-08T17:13:23.499Z,23.85
2022-08-08T17:15:56.177Z,23.85
2022-08-08T17:18:24.919Z,23.81
2022-08-08T17:20:53.215Z,23.73
2022-08-08T17:23:58.139Z,23.71
2022-08-08T17:26:11.611Z,23.55
2022-08-08T17:28:41.048Z,23.31
2022-08-08T17:31:43.587Z,23.51
2022-08-08T17:34:49.031Z,23.35
2022-08-08T17:37:00.722Z,23.06
2022-08-08T17:40:03.781Z,22.96
2022-08-08T17:42:20.508Z,22.93
2022-08-08T17:44:52.754Z,22.86
2022-08-08T17:47:24.128Z,22.68
2022-08-08T17:50:01.005Z,22.71
2022-08-08T17:52:34.418Z,22.50
2022-08-08T17:55:05.319Z,22.44
2022-08-08T17:57:35.555Z,22.19
2022-08-08T18:00:21.295Z,22.12
2022-08-08T18:02:52.536Z,22.05
2022-08-08T18:05:48.588Z,21.91
2022-08-08T18:08:37.797Z,21.85
2022-08-08T18:11:15.437Z,21.58
2022-08-08T18:13:45.517Z,21.41
2022-08-08T18:16:20.174Z,21.20
2022-08-08T18:18:52.988Z,20.86
2022-08-08T18:21:34.635Z,20.63
2022-08-08T18:24:19.192Z,20.59
2022-08-08T18:26:54.772Z,20.37
2022-08-08T18:29:30.095Z,20.14
2022-08-08T18:32:04.742Z,19.65
2022-08-08T18:34:34.145Z,19.63
2022-08-08T18:37:07.940Z,19.33
2022-08-08T18:39:37.578Z,19.28
2022-08-08T18:42:13.782Z,19.00
2022-08-08T18:44:55.987Z,18.85
2022-08-08T18:47:28.031Z,18.74
2022-08-08T18:50:00.000Z,18.52
2022-08-08T18:52:30.450Z,18.31
2022-08-08T18:55:09.758Z,18.27
2022-08-08T18:57:41.734Z,18.12
2022-08-08T19:00:16.785Z,18.03
2022-08-08T19:02:55.841Z,17.85
2022-08-08T19:05:32.039Z,17.69
2022-08-08T19:08:09.523Z,17.53
2022-08-08T19:10:37.686Z,17.25
2022-08-08T19:13:20.981Z,17.15
2022-08-08T19:15:51.941Z,16.78
2022-08-08T19:18:31.796Z,16.82
2022-08-08T19:21:03.547Z,16.88
2022-08-08T19:23:51.962Z,16.77
2022-08-08T19:26:30.321Z,16.47
2022-08-08T19:28:59.753Z,16.47
2022-08-08T19:31:31.035Z,16.41
2022-08-08T19:34:29.533Z,16.15
2022-08-08T19:36:49.408Z,15.83
2022-08-08T19:39:18.234Z,16.06
2022-08-08T19:41:47.638Z,15.90
2022-08-08T19:44:42.495Z,15.84
2022-08-08T19:47:06.621Z,15.79
2022-08-08T19:49:36.679Z,15.74
2022-08-08T19:52:07.788Z,15.62
2022-08-08T19:54:38.545Z,15.57
2022-08-08T19:57:08.061Z,15.48
2022-08-08T19:59:39.572Z,15.39
2022-08-08T20:02:10.736Z,15.33
2022-08-08T20:04:41.978Z,15.30
2022-08-08T20:08:28.150Z,15.01
2022-08-08T20:10:02.354Z,15.19
2022-08-08T20:12:31.967Z,15.25
2022-08-08T20:15:10.419Z,15.21
2022-08-08T20:17:45.562Z,15.08
2022-08-08T20:20:19.197Z,15.02
2022-08-08T20:22:54.137Z,15.14
2022-08-08T20:25:29.684Z,15.25
2022-08-08T20:28:03.399Z,15.31
2022-08-08T20:30:53.209Z,15.15
2022-08-08T20:35:58.397Z,14.71
2022-08-08T20:38:34.435Z,14.64
2022-08-08T20:41:05.703Z,14.73
2022-08-08T20:43:49.841Z,14.60
2022-08-08T20:46:21.205Z,14.40
2022-08-08T20:48:58.303Z,14.46
2022-08-08T20:51:31.519Z,14.31
2022-08-08T20:54:04.824Z,14.45
2022-08-08T20:57:04.343Z,14.40
2022-08-08T20:59:30.944Z,14.18
2022-08-08T21:02:06.064Z,14.14
2022-08-08T21:04:37.159Z,14.07
2022-08-08T21:07:08.177Z,13.94
2022-08-08T21:10:01.730Z,13.69
2022-08-08T21:12:33.464Z,13.75
2022-08-08T21:15:06.836Z,13.77
2022-08-08T21:17:36.766Z,13.71
2022-08-08T21:20:05.967Z,13.64
2022-08-08T21:22:35.863Z,13.36
2022-08-08T21:25:10.705Z,13.48
2022-08-08T21:28:09.025Z,13.48
2022-08-08T21:30:30.183Z,13.44
2022-08-08T21:32:58.387Z,13.40
2022-08-08T21:36:17.526Z,13.35
2022-08-08T21:38:22.613Z,13.21
2022-08-08T21:40:54.902Z,13.25
2022-08-08T21:43:25.097Z,13.22
2022-08-08T21:48:05.107Z,13.02
2022-08-08T21:48:44.638Z,13.08
2022-08-08T21:52:09.840Z,13.14
2022-08-08T21:54:30.981Z,12.89
2022-08-08T21:57:00.869Z,13.01
2022-08-08T22:00:01.585Z,13.11
2022-08-08T22:02:23.613Z,13.05
2022-08-08T22:04:55.710Z,12.77
2022-08-08T22:07:40.163Z,12.88
2022-08-08T22:10:28.249Z,12.97
2022-08-08T22:13:16.691Z,12.88
2022-08-08T22:15:58.723Z,12.81
2022-08-08T22:18:29.049Z,12.68
2022-08-08T22:21:01.412Z,12.69
2022-08-08T22:23:36.921Z,12.68
2022-08-08T22:26:28.076Z,12.59
2022-08-08T22:29:13.060Z,12.58
2022-08-08T22:31:58.349Z,12.51
2022-08-08T22:34:32.904Z,12.29
2022-08-08T22:37:01.451Z,12.25
2022-08-08T22:39:39.513Z,12.30
2022-08-08T22:42:27.098Z,11.90
2022-08-08T22:44:56.526Z,12.28
2022-08-08T22:47:38.351Z,12.20
2022-08-08T22:50:25.570Z,12.23
2022-08-08T22:54:19.651Z,12.20
2022-08-08T22:55:59.266Z,12.02
2022-08-08T22:58:35.151Z,11.77
2022-08-08T23:01:16.746Z,12.01
2022-08-08T23:03:55.920Z,11.90
2022-08-08T23:06:25.757Z,11.97
2022-08-08T23:09:00.136Z,11.71
2022-08-08T23:12:18.217Z,11.82
2022-08-08T23:14:22.245Z,11.63
2022-08-08T23:16:59.169Z,11.59
2022-08-08T23:19:32.149Z,11.59
2022-08-08T23:22:01.613Z,11.66
2022-08-08T23:24:36.502Z,11.68
2022-08-08T23:27:10.413Z,11.27
2022-08-08T23:29:40.669Z,11.38
2022-08-08T23:32:11.191Z,11.47
2022-08-08T23:34:39.825Z,11.56
2022-08-08T23:37:18.538Z,11.13
2022-08-08T23:39:57.762Z,11.12
2022-08-08T23:42:26.525Z,11.47
2022-08-08T23:44:57.102Z,11.44
2022-08-08T23:49:03.216Z,11.03
2022-08-08T23:50:30.656Z,11.07
2022-08-08T23:53:05.105Z,11.07
2022-08-08T23:55:41.954Z,11.13
2022-08-08T23:58:37.805Z,11.11
